Time;durP1;ratioP1;P1;durP2;ratioP2;P2;SDS_P1;SDS_P2;PMS_P1;PMS_P2;Temp;Humidity;BMP_temperature;BMP_pressure;BME280_temperature;BME280_humidity;BME280_pressure;Samples;Min_cycle;Max_cycle;Signal;HPM_P1;HPM_P2
2021/06/16 00:02:14;;;;;;;6.92;1.45;;;18.20;99.90;;;;;;1933767;74;21100;-83
2021/06/16 00:04:40;;;;;;;2.30;0.80;;;18.10;99.90;;;;;;1933823;74;21126;-83
2021/06/16 00:07:06;;;;;;;1.62;0.90;;;18.10;99.90;;;;;;1934712;74;21049;-82
2021/06/16 00:09:38;;;;;;;2.22;0.90;;;18.10;99.90;;;;;;1936364;72;21069;-82
2021/06/16 00:12:06;;;;;;;2.50;1.37;;;18.20;99.90;;;;;;1935106;73;21044;-83
2021/06/16 00:14:32;;;;;;;2.37;1.00;;;18.20;99.90;;;;;;1934315;74;21052;-82
2021/06/16 00:17:04;;;;;;;5.00;1.10;;;18.20;99.90;;;;;;1934056;72;21061;-83
2021/06/16 00:19:36;;;;;;;2.15;1.05;;;18.20;99.90;;;;;;1933459;74;21119;-82
2021/06/16 00:21:58;;;;;;;0.80;0.80;;;18.10;99.90;;;;;;1933285;73;21029;-83
2021/06/16 00:24:25;;;;;;;4.55;1.10;;;18.20;99.90;;;;;;1933325;73;21579;-85
2021/06/16 00:29:28;;;;;;;0.72;0.72;;;18.10;99.90;;;;;;1927340;73;21122;-84
2021/06/16 00:32:04;;;;;;;2.65;1.07;;;18.10;99.90;;;;;;1927687;73;21584;-84
2021/06/16 00:34:30;;;;;;;2.22;1.15;;;18.00;99.90;;;;;;1928613;72;21057;-83
2021/06/16 00:36:56;;;;;;;3.35;1.02;;;18.00;99.90;;;;;;1933841;73;21056;-82
2021/06/16 00:39:22;;;;;;;8.55;1.12;;;18.00;99.90;;;;;;1933634;74;21130;-82
2021/06/16 00:41:49;;;;;;;1.62;0.93;;;17.90;99.90;;;;;;1933708;74;21022;-82
2021/06/16 00:44:15;;;;;;;2.55;1.20;;;17.90;99.90;;;;;;1933724;74;21049;-83
2021/06/16 00:46:44;;;;;;;2.22;1.60;;;17.80;99.90;;;;;;1933844;74;21022;-82
2021/06/16 00:49:10;;;;;;;2.50;1.30;;;17.70;99.90;;;;;;1933677;74;21061;-84
2021/06/16 00:51:36;;;;;;;1.60;1.30;;;17.60;99.90;;;;;;1933789;74;21048;-83
2021/06/16 00:54:09;;;;;;;1.20;1.10;;;17.60;99.90;;;;;;1933715;74;21165;-82
2021/06/16 00:56:33;;;;;;;4.22;1.52;;;17.60;99.90;;;;;;1932087;74;21057;-82
2021/06/16 00:58:59;;;;;;;1.12;0.95;;;17.70;99.90;;;;;;1933644;74;21069;-83
2021/06/16 01:01:25;;;;;;;1.98;1.42;;;17.60;99.90;;;;;;1933693;74;21061;-83
2021/06/16 01:03:51;;;;;;;2.12;1.30;;;17.60;99.90;;;;;;1933662;74;21080;-82
2021/06/16 01:06:18;;;;;;;2.40;1.17;;;17.60;99.90;;;;;;1933682;74;21064;-83
2021/06/16 01:08:44;;;;;;;3.70;1.32;;;17.60;99.90;;;;;;1934091;74;21049;-82
2021/06/16 01:11:10;;;;;;;3.02;1.37;;;17.50;99.90;;;;;;1934806;74;21052;-83
2021/06/16 01:13:36;;;;;;;1.57;1.12;;;17.40;99.90;;;;;;1934970;74;21509;-82
2021/06/16 01:16:03;;;;;;;3.08;1.15;;;17.40;99.90;;;;;;1933677;72;21506;-83
2021/06/16 01:18:29;;;;;;;2.42;1.32;;;17.30;99.90;;;;;;1933710;74;21459;-83
2021/06/16 01:20:55;;;;;;;1.85;1.17;;;17.30;99.90;;;;;;1933493;74;21565;-82
2021/06/16 01:23:21;;;;;;;1.10;0.93;;;17.30;99.90;;;;;;1933645;74;21496;-82
2021/06/16 01:25:47;;;;;;;2.20;1.22;;;17.30;99.90;;;;;;1924652;72;21458;-83
2021/06/16 01:28:13;;;;;;;5.47;1.47;;;17.30;99.90;;;;;;1933850;74;21064;-81
2021/06/16 01:30:39;;;;;;;1.52;1.30;;;17.20;99.90;;;;;;1933462;74;21135;-83
2021/06/16 01:33:05;;;;;;;1.57;1.25;;;17.20;99.90;;;;;;1933687;74;21061;-82
2021/06/16 01:35:31;;;;;;;1.55;1.30;;;17.20;99.90;;;;;;1933438;74;21081;-82
2021/06/16 01:37:58;;;;;;;1.50;1.20;;;17.20;99.90;;;;;;1933754;74;21056;-82
2021/06/16 01:40:24;;;;;;;2.25;1.20;;;17.20;99.90;;;;;;1933559;74;21069;-83
2021/06/16 01:42:50;;;;;;;2.33;1.20;;;17.20;99.90;;;;;;1933596;74;21060;-82
2021/06/16 01:45:16;;;;;;;5.00;1.30;;;17.10;99.90;;;;;;1933735;74;21038;-79
2021/06/16 01:47:42;;;;;;;1.47;1.37;;;17.00;99.90;;;;;;1933948;72;21077;-82
2021/06/16 01:50:08;;;;;;;1.92;1.45;;;17.00;99.90;;;;;;1933536;74;21064;-82
2021/06/16 01:52:34;;;;;;;3.42;1.65;;;17.10;99.90;;;;;;1933633;74;21057;-83
2021/06/16 01:55:00;;;;;;;2.62;1.62;;;17.00;99.90;;;;;;1933597;74;21038;-82
2021/06/16 01:57:27;;;;;;;3.85;1.80;;;17.00;99.90;;;;;;1933592;74;21064;-82
2021/06/16 01:59:53;;;;;;;4.70;2.00;;;17.00;99.90;;;;;;1933536;73;21146;-82
2021/06/16 02:02:19;;;;;;;4.10;1.95;;;17.00;99.90;;;;;;1933514;74;21073;-82
2021/06/16 02:04:45;;;;;;;4.67;2.08;;;17.00;99.90;;;;;;1933590;74;21507;-82
2021/06/16 02:07:11;;;;;;;3.10;1.65;;;17.00;99.90;;;;;;1933417;74;21548;-81
2021/06/16 02:09:37;;;;;;;3.75;2.17;;;17.00;99.90;;;;;;1933388;74;21433;-82
2021/06/16 02:12:03;;;;;;;3.98;1.40;;;16.90;99.90;;;;;;1933623;74;21550;-81
2021/06/16 02:14:30;;;;;;;2.10;1.65;;;17.00;99.90;;;;;;1933527;74;21539;-81
2021/06/16 02:16:56;;;;;;;2.22;1.50;;;16.90;99.90;;;;;;1933878;74;21045;-81
2021/06/16 02:19:22;;;;;;;3.52;1.87;;;16.90;99.90;;;;;;1933779;74;21551;-81
2021/06/16 02:21:48;;;;;;;10.60;1.77;;;16.90;99.90;;;;;;1933567;72;21131;-80
2021/06/16 02:24:14;;;;;;;2.05;1.80;;;16.90;99.90;;;;;;1933560;74;21131;-81
2021/06/16 02:26:41;;;;;;;3.00;1.50;;;16.90;99.90;;;;;;1933742;74;21060;-82
2021/06/16 02:29:07;;;;;;;2.22;1.42;;;16.80;99.90;;;;;;1933755;74;21065;-82
2021/06/16 02:31:33;;;;;;;2.47;1.70;;;16.80;99.90;;;;;;1933521;74;21029;-82
2021/06/16 02:34:00;;;;;;;7.50;2.12;;;16.80;99.90;;;;;;1933687;74;21134;-82
2021/06/16 02:36:26;;;;;;;4.58;2.22;;;16.70;99.90;;;;;;1936126;74;21005;-82
2021/06/16 02:38:53;;;;;;;4.20;2.30;;;16.70;99.90;;;;;;1936445;74;21122;-81
2021/06/16 02:41:19;;;;;;;3.17;2.20;;;16.70;99.90;;;;;;1934741;74;21022;-81
2021/06/16 02:43:46;;;;;;;7.33;2.37;;;16.70;99.90;;;;;;1933716;74;21142;-82
2021/06/16 02:46:12;;;;;;;2.67;2.15;;;16.70;99.90;;;;;;1933794;74;21169;-81
2021/06/16 02:48:38;;;;;;;9.03;2.35;;;16.70;99.90;;;;;;1933875;74;21061;-84
2021/06/16 02:51:05;;;;;;;3.52;2.25;;;16.70;99.90;;;;;;1897865;74;21029;-81
2021/06/16 02:53:31;;;;;;;3.90;1.95;;;16.70;99.90;;;;;;1933632;74;21445;-81
2021/06/16 02:55:57;;;;;;;4.55;2.52;;;16.70;99.90;;;;;;1933430;74;21094;-81
2021/06/16 02:58:23;;;;;;;5.17;2.22;;;16.70;99.90;;;;;;1933691;74;21061;-81
2021/06/16 03:00:49;;;;;;;3.60;2.20;;;16.60;99.90;;;;;;1933500;74;21143;-82
2021/06/16 03:03:18;;;;;;;5.70;1.80;;;16.60;99.90;;;;;;1933714;74;21057;-81
2021/06/16 03:05:43;;;;;;;9.05;1.52;;;16.60;99.90;;;;;;1933422;74;21437;-81
2021/06/16 03:08:09;;;;;;;1.70;1.45;;;16.60;99.90;;;;;;1933778;72;21511;-81
2021/06/16 03:10:36;;;;;;;3.52;1.77;;;16.50;99.90;;;;;;1933584;74;21037;-82
2021/06/16 03:13:02;;;;;;;2.55;1.65;;;16.40;99.90;;;;;;1933763;74;21583;-81
2021/06/16 03:15:28;;;;;;;2.25;1.75;;;16.40;99.90;;;;;;1933707;74;21437;-81
2021/06/16 03:17:54;;;;;;;13.10;1.70;;;16.40;99.90;;;;;;1933519;74;21546;-82
2021/06/16 03:20:20;;;;;;;4.70;2.00;;;16.30;99.90;;;;;;1933749;74;21139;-82
2021/06/16 03:22:46;;;;;;;3.62;1.65;;;16.30;99.90;;;;;;1933466;72;21034;-81
2021/06/16 03:25:12;;;;;;;2.27;1.57;;;16.20;99.90;;;;;;1933483;74;21045;-81
2021/06/16 03:27:39;;;;;;;1.57;1.47;;;16.30;99.90;;;;;;1933621;74;21130;-83
2021/06/16 03:30:05;;;;;;;2.27;1.52;;;16.30;99.90;;;;;;1933642;73;21126;-82
2021/06/16 03:32:31;;;;;;;2.17;1.98;;;16.30;99.90;;;;;;1933666;72;21025;-81
2021/06/16 03:34:57;;;;;;;4.62;2.15;;;16.20;99.90;;;;;;1933686;74;21123;-82
2021/06/16 03:37:23;;;;;;;4.62;1.95;;;16.20;99.90;;;;;;1933761;74;21056;-81
2021/06/16 03:39:49;;;;;;;3.62;1.98;;;16.20;99.90;;;;;;1933762;73;21213;-82
2021/06/16 03:42:15;;;;;;;5.45;1.80;;;16.20;99.90;;;;;;1933979;72;21022;-82
2021/06/16 03:44:41;;;;;;;5.50;1.92;;;16.20;99.90;;;;;;1935555;72;21001;-80
2021/06/16 03:47:08;;;;;;;1.60;1.50;;;16.20;99.90;;;;;;1934960;74;21049;-81
2021/06/16 03:49:34;;;;;;;1.87;1.47;;;16.30;99.90;;;;;;1933722;72;21076;-81
2021/06/16 03:52:00;;;;;;;3.92;1.82;;;16.30;99.90;;;;;;1933614;74;21029;-82
2021/06/16 03:54:26;;;;;;;5.45;1.90;;;16.30;99.90;;;;;;1933763;74;21068;-81
2021/06/16 03:56:52;;;;;;;6.33;1.80;;;16.40;99.90;;;;;;1933882;74;21263;-81
2021/06/16 03:59:18;;;;;;;9.83;2.50;;;16.30;99.90;;;;;;1937392;74;21041;-80
2021/06/16 04:01:44;;;;;;;4.00;1.75;;;16.30;99.90;;;;;;1937080;74;21091;-82
2021/06/16 04:04:10;;;;;;;2.83;1.95;;;16.40;99.90;;;;;;1934978;72;21102;-81
2021/06/16 04:06:37;;;;;;;5.17;1.77;;;16.30;99.90;;;;;;1934045;74;21061;-81
2021/06/16 04:09:03;;;;;;;6.55;1.82;;;16.40;99.90;;;;;;1933748;74;21162;-82
2021/06/16 04:11:29;;;;;;;2.52;1.92;;;16.40;99.90;;;;;;1933856;72;21069;-81
2021/06/16 04:16:39;;;;;;;3.10;1.67;;;16.50;99.90;;;;;;1933615;74;21591;-81
2021/06/16 04:19:05;;;;;;;5.72;1.92;;;16.60;99.90;;;;;;1933560;74;21484;-81
2021/06/16 04:21:32;;;;;;;2.75;1.98;;;16.60;99.90;;;;;;1933541;74;21509;-82
2021/06/16 04:23:58;;;;;;;4.65;2.22;;;16.60;99.90;;;;;;1933535;74;21534;-82
2021/06/16 04:26:24;;;;;;;7.62;2.10;;;16.70;99.90;;;;;;1933548;74;21472;-82
2021/06/16 04:28:50;;;;;;;3.00;1.80;;;16.80;99.90;;;;;;1933552;74;21053;-82
2021/06/16 04:31:16;;;;;;;3.22;2.27;;;16.80;99.90;;;;;;1933525;72;21030;-83
2021/06/16 04:33:42;;;;;;;3.33;1.82;;;16.90;99.90;;;;;;1933501;74;21096;-80
2021/06/16 04:36:08;;;;;;;3.83;2.40;;;17.00;99.90;;;;;;1933519;74;21065;-80
2021/06/16 04:38:35;;;;;;;3.27;2.35;;;16.90;99.90;;;;;;1933504;72;21030;-80
2021/06/16 04:41:01;;;;;;;4.20;2.50;;;17.00;99.90;;;;;;1933627;74;21038;-79
2021/06/16 04:43:28;;;;;;;4.60;2.08;;;16.90;99.90;;;;;;1933550;74;21118;-81
2021/06/16 04:45:54;;;;;;;3.17;1.95;;;17.10;99.90;;;;;;1933593;74;21143;-82
2021/06/16 04:48:21;;;;;;;2.20;1.85;;;17.20;99.90;;;;;;1933558;74;21127;-81
2021/06/16 04:50:47;;;;;;;3.58;2.22;;;17.40;99.90;;;;;;1933550;74;21077;-79
2021/06/16 04:53:13;;;;;;;2.62;1.90;;;17.30;99.90;;;;;;1933523;74;21061;-83
2021/06/16 04:55:39;;;;;;;4.30;2.22;;;17.30;99.90;;;;;;1933551;74;21147;-82
2021/06/16 04:58:06;;;;;;;7.35;2.10;;;17.40;99.90;;;;;;1933581;74;21476;-80
2021/06/16 05:00:33;;;;;;;7.20;2.30;;;17.50;99.90;;;;;;1933567;74;21461;-81
2021/06/16 05:03:02;;;;;;;3.55;2.52;;;17.60;99.90;;;;;;1933596;74;21464;-82
2021/06/16 05:05:28;;;;;;;4.92;2.62;;;17.60;99.90;;;;;;1897569;74;21131;-82
2021/06/16 05:07:54;;;;;;;3.70;2.75;;;17.70;99.90;;;;;;1933624;74;21030;-82
2021/06/16 05:10:21;;;;;;;7.17;3.77;;;17.70;99.90;;;;;;1933522;74;21061;-80
2021/06/16 05:12:47;;;;;;;4.00;3.17;;;17.80;99.90;;;;;;1933666;74;21064;-80
2021/06/16 05:15:13;;;;;;;10.20;5.60;;;17.90;99.90;;;;;;1933522;74;21127;-79
2021/06/16 05:17:40;;;;;;;13.38;5.78;;;18.00;99.90;;;;;;1933454;74;21069;-79
2021/06/16 05:20:06;;;;;;;7.95;4.83;;;18.00;99.90;;;;;;1933451;74;21433;-79
2021/06/16 05:22:32;;;;;;;9.45;4.87;;;18.10;99.90;;;;;;1933510;74;21548;-80
2021/06/16 05:24:58;;;;;;;14.38;5.50;;;18.30;99.90;;;;;;1933437;74;21497;-81
2021/06/16 05:27:24;;;;;;;6.87;4.67;;;18.60;99.90;;;;;;1933487;74;21437;-78
2021/06/16 05:29:53;;;;;;;6.75;4.20;;;18.80;99.90;;;;;;1933516;74;21578;-78
2021/06/16 05:32:18;;;;;;;9.15;2.72;;;19.60;99.90;;;;;;1933388;74;21518;-79
2021/06/16 05:34:44;;;;;;;10.30;2.92;;;20.60;99.90;;;;;;1933525;74;21069;-79
2021/06/16 05:37:10;;;;;;;3.55;2.62;;;21.50;99.90;;;;;;1933500;74;21038;-76
2021/06/16 05:39:36;;;;;;;6.22;2.35;;;21.60;99.90;;;;;;1933527;74;21068;-75
2021/06/16 05:42:03;;;;;;;4.20;2.12;;;21.90;99.90;;;;;;1933502;74;21116;-77
2021/06/16 05:44:29;;;;;;;3.95;1.90;;;22.30;99.90;;;;;;1933803;74;21107;-78
2021/06/16 05:46:55;;;;;;;2.72;1.70;;;23.10;99.90;;;;;;1929452;72;21439;-75
2021/06/16 05:49:21;;;;;;;2.67;1.75;;;23.40;99.90;;;;;;1928587;74;21425;-83
2021/06/16 05:51:47;;;;;;;4.97;2.20;;;23.20;99.90;;;;;;1933705;74;21453;-79
2021/06/16 05:54:13;;;;;;;3.30;1.72;;;23.90;99.90;;;;;;1933734;74;21547;-79
2021/06/16 05:56:39;;;;;;;3.50;1.60;;;24.20;99.90;;;;;;1933379;74;21458;-79
2021/06/16 05:59:05;;;;;;;2.75;2.00;;;24.80;99.90;;;;;;1933608;74;21445;-78
2021/06/16 06:01:31;;;;;;;3.05;1.57;;;24.20;99.90;;;;;;1932716;74;21582;-79
2021/06/16 06:03:58;;;;;;;8.75;1.80;;;23.90;99.90;;;;;;1933420;72;21072;-81
2021/06/16 06:06:26;;;;;;;3.52;1.75;;;23.80;99.90;;;;;;1933590;74;21033;-82
2021/06/16 06:08:52;;;;;;;5.62;1.70;;;24.10;99.90;;;;;;1936317;73;21381;-79
2021/06/16 06:11:18;;;;;;;3.52;1.87;;;24.40;99.90;;;;;;1933671;74;21036;-78
2021/06/16 06:13:44;;;;;;;2.95;1.70;;;24.00;99.90;;;;;;1936505;73;21057;-79
2021/06/16 06:16:11;;;;;;;3.22;1.52;;;23.80;99.90;;;;;;1937870;73;21459;-78
2021/06/16 06:18:37;;;;;;;3.00;1.72;;;24.20;99.90;;;;;;1941115;73;21138;-78
2021/06/16 06:21:03;;;;;;;2.58;1.55;;;24.50;99.90;;;;;;1933816;74;21134;-79
2021/06/16 06:23:29;;;;;;;5.47;1.42;;;24.60;99.90;;;;;;1933812;72;21131;-79
2021/06/16 06:25:55;;;;;;;2.98;1.87;;;25.00;99.90;;;;;;1933784;74;21033;-78
2021/06/16 06:28:22;;;;;;;1.50;1.20;;;24.50;99.90;;;;;;1933746;74;21061;-80
2021/06/16 06:30:48;;;;;;;3.52;1.52;;;25.40;99.90;;;;;;1933660;72;21514;-79
2021/06/16 06:33:14;;;;;;;7.97;1.90;;;26.40;99.90;;;;;;1933452;72;21587;-80
2021/06/16 06:35:40;;;;;;;3.83;1.70;;;26.40;99.90;;;;;;1933651;74;21135;-80
2021/06/16 06:38:06;;;;;;;6.92;1.92;;;25.60;99.90;;;;;;1933457;72;21426;-79
2021/06/16 06:40:32;;;;;;;4.85;1.42;;;26.10;99.90;;;;;;1933684;74;21544;-79
2021/06/16 06:42:59;;;;;;;3.50;1.60;;;26.10;99.90;;;;;;1933491;74;21052;-81
2021/06/16 06:45:25;;;;;;;2.45;1.67;;;26.20;99.90;;;;;;1934054;74;21062;-81
2021/06/16 06:47:51;;;;;;;1.87;1.47;;;26.20;99.90;;;;;;1934161;74;21030;-80
2021/06/16 06:50:17;;;;;;;3.00;1.40;;;26.60;99.90;;;;;;1934320;74;21151;-80
2021/06/16 06:52:43;;;;;;;7.03;2.12;;;26.50;99.90;;;;;;1933754;74;21061;-78
2021/06/16 06:55:09;;;;;;;4.50;1.90;;;27.30;99.90;;;;;;1933639;74;21134;-78
2021/06/16 06:57:35;;;;;;;7.95;1.50;;;26.10;99.90;;;;;;1933720;74;21061;-78
2021/06/16 07:00:01;;;;;;;3.45;1.50;;;25.90;99.90;;;;;;1933756;74;21047;-79
2021/06/16 07:02:28;;;;;;;2.75;1.52;;;25.70;99.90;;;;;;1933695;74;21028;-77
2021/06/16 07:04:54;;;;;;;4.37;1.50;;;26.50;99.90;;;;;;1933530;74;21131;-78
2021/06/16 07:07:20;;;;;;;7.22;1.25;;;26.60;99.90;;;;;;1933548;74;21065;-78
2021/06/16 07:09:48;;;;;;;3.10;1.30;;;27.00;99.90;;;;;;1933552;74;21064;-78
2021/06/16 07:12:14;;;;;;;1.65;1.20;;;26.90;99.90;;;;;;1933472;74;21061;-77
2021/06/16 07:14:41;;;;;;;5.35;1.35;;;27.70;99.90;;;;;;1933639;74;21060;-78
2021/06/16 07:17:07;;;;;;;3.05;1.25;;;27.50;99.90;;;;;;1933640;74;21064;-78
2021/06/16 07:19:33;;;;;;;4.42;1.35;;;27.60;99.90;;;;;;1933531;74;21056;-77
2021/06/16 07:21:59;;;;;;;2.58;1.40;;;27.20;99.90;;;;;;1933465;74;21088;-77
2021/06/16 07:24:25;;;;;;;2.67;1.35;;;27.20;99.90;;;;;;1935545;72;21485;-77
2021/06/16 07:26:52;;;;;;;1.80;1.17;;;28.00;99.90;;;;;;1937265;72;21020;-78
2021/06/16 07:29:18;;;;;;;3.05;0.88;;;28.70;99.90;;;;;;1933966;72;21086;-77
2021/06/16 07:31:44;;;;;;;3.30;1.42;;;28.60;99.90;;;;;;1933471;74;21029;-77
2021/06/16 07:34:10;;;;;;;1.42;1.32;;;28.30;99.90;;;;;;1933489;74;21048;-76
2021/06/16 07:36:36;;;;;;;5.08;1.40;;;27.80;99.90;;;;;;1897718;74;21150;-77
2021/06/16 07:39:02;;;;;;;5.72;1.17;;;27.70;99.90;;;;;;1933577;72;21108;-77
2021/06/16 07:41:28;;;;;;;4.80;1.17;;;27.70;99.90;;;;;;1933486;72;21087;-77
2021/06/16 07:43:55;;;;;;;10.53;1.37;;;27.90;99.90;;;;;;1933475;74;21068;-77
2021/06/16 07:46:22;;;;;;;4.60;2.02;;;28.60;99.90;;;;;;1933542;74;21052;-77
2021/06/16 07:48:50;;;;;;;4.67;1.57;;;28.50;99.90;;;;;;1933400;74;21119;-76
2021/06/16 07:51:16;;;;;;;4.03;1.37;;;28.90;99.90;;;;;;1933671;74;21065;-82
2021/06/16 07:53:42;;;;;;;3.40;1.30;;;28.70;99.90;;;;;;1933667;72;21374;-82
2021/06/16 07:56:08;;;;;;;3.22;1.20;;;28.50;99.90;;;;;;1939515;72;21066;-80
2021/06/16 07:58:36;;;;;;;1.00;0.95;;;28.50;99.90;;;;;;1936772;72;21130;-80
2021/06/16 08:01:02;;;;;;;2.05;1.27;;;29.10;99.90;;;;;;1933644;74;21569;-80
2021/06/16 08:03:28;;;;;;;1.87;1.20;;;28.70;99.90;;;;;;1897627;74;21024;-81
2021/06/16 08:05:55;;;;;;;2.77;1.22;;;28.30;99.90;;;;;;1933689;74;21024;-80
2021/06/16 08:08:21;;;;;;;2.80;1.45;;;28.20;99.90;;;;;;1933860;74;21130;-80
2021/06/16 08:10:47;;;;;;;5.28;1.40;;;28.70;99.90;;;;;;1933697;74;21065;-80
2021/06/16 08:13:13;;;;;;;1.30;1.00;;;28.90;99.20;;;;;;1933638;74;21029;-80
2021/06/16 08:15:39;;;;;;;6.50;1.17;;;28.70;98.70;;;;;;1934266;74;21114;-80
2021/06/16 08:18:05;;;;;;;1.27;0.95;;;28.50;99.90;;;;;;1934503;74;21102;-80
2021/06/16 08:20:31;;;;;;;4.78;1.40;;;28.90;98.90;;;;;;1933962;74;21037;-81
2021/06/16 08:22:59;;;;;;;7.42;1.80;;;29.40;97.60;;;;;;1933616;74;21155;-79
2021/06/16 08:25:25;;;;;;;2.33;1.02;;;28.70;97.90;;;;;;1933535;73;21025;-82
2021/06/16 08:27:52;;;;;;;10.03;1.15;;;28.00;98.80;;;;;;1933484;74;21115;-81
2021/06/16 08:30:19;;;;;;;3.70;1.20;;;28.20;98.50;;;;;;1933805;74;21053;-81
2021/06/16 08:32:45;;;;;;;4.37;1.50;;;28.40;98.70;;;;;;1897602;74;21114;-82
2021/06/16 08:35:11;;;;;;;6.20;1.40;;;29.00;99.10;;;;;;1933774;72;21134;-82
2021/06/16 08:37:39;;;;;;;10.35;1.50;;;29.40;98.40;;;;;;1933447;74;21052;-80
2021/06/16 08:40:05;;;;;;;8.43;1.57;;;29.30;96.80;;;;;;1933611;73;21511;-80
2021/06/16 08:42:31;;;;;;;2.85;1.30;;;29.10;97.60;;;;;;1933648;72;21481;-81
2021/06/16 08:44:57;;;;;;;2.52;1.30;;;29.40;98.30;;;;;;1933568;72;21420;-80
2021/06/16 08:47:23;;;;;;;6.87;1.65;;;29.20;96.80;;;;;;1933513;74;21511;-80
2021/06/16 08:49:49;;;;;;;4.00;1.52;;;29.00;97.10;;;;;;1933521;74;21432;-81
2021/06/16 08:52:15;;;;;;;4.60;1.42;;;28.90;96.70;;;;;;1933635;74;21421;-80
2021/06/16 08:54:42;;;;;;;2.60;1.20;;;29.60;95.50;;;;;;1933727;74;21452;-80
2021/06/16 08:57:08;;;;;;;5.45;1.77;;;29.50;95.40;;;;;;1934015;74;21558;-81
2021/06/16 08:59:34;;;;;;;3.85;1.27;;;29.70;95.30;;;;;;1933940;74;21477;-80
2021/06/16 09:02:02;;;;;;;4.17;1.30;;;30.30;94.80;;;;;;1934755;74;21022;-83
2021/06/16 09:04:28;;;;;;;4.22;1.40;;;30.00;94.00;;;;;;1934627;74;21080;-80
2021/06/16 09:06:54;;;;;;;2.05;1.20;;;29.80;94.30;;;;;;1935022;74;21142;-79
2021/06/16 09:09:20;;;;;;;4.50;1.22;;;30.10;95.30;;;;;;1934765;72;21024;-80
2021/06/16 09:11:47;;;;;;;6.30;1.45;;;30.10;94.00;;;;;;1934683;74;21049;-81
2021/06/16 09:14:13;;;;;;;1.98;1.17;;;30.20;94.80;;;;;;1934679;72;21116;-81
2021/06/16 09:16:39;;;;;;;3.10;1.22;;;30.40;92.90;;;;;;1934877;74;21057;-80
2021/06/16 09:19:05;;;;;;;6.75;1.57;;;29.90;93.70;;;;;;1934627;74;21052;-79
2021/06/16 09:21:31;;;;;;;3.95;1.72;;;29.50;94.60;;;;;;1936195;74;21550;-80
2021/06/16 09:23:57;;;;;;;5.12;1.72;;;29.90;93.20;;;;;;1935704;74;21099;-80
2021/06/16 09:26:24;;;;;;;5.08;1.45;;;29.80;93.10;;;;;;1934641;74;21111;-82
2021/06/16 09:28:51;;;;;;;4.42;1.40;;;29.00;93.80;;;;;;1934143;74;21054;-81
2021/06/16 09:31:17;;;;;;;10.82;1.45;;;29.60;94.20;;;;;;1934047;74;21135;-81
2021/06/16 09:33:47;;;;;;;5.15;2.58;;;29.70;94.30;;;;;;1934369;72;21535;-80
2021/06/16 09:36:13;;;;;;;10.43;2.60;;;30.40;93.40;;;;;;1934426;74;21084;-81
2021/06/16 09:38:41;;;;;;;7.95;1.75;;;30.80;92.20;;;;;;1935762;74;21029;-83
2021/06/16 09:41:06;;;;;;;5.80;1.47;;;31.30;91.30;;;;;;1935389;74;21122;-81
2021/06/16 09:43:34;;;;;;;5.95;1.32;;;30.40;92.00;;;;;;1935172;74;21072;-79
2021/06/16 09:46:00;;;;;;;3.25;1.55;;;30.70;91.20;;;;;;1934923;74;21048;-81
2021/06/16 09:48:27;;;;;;;10.60;1.20;;;31.20;91.00;;;;;;1898841;74;21098;-79
2021/06/16 09:50:53;;;;;;;4.75;1.30;;;31.00;91.40;;;;;;1935206;74;21100;-80
2021/06/16 09:53:20;;;;;;;5.60;1.77;;;30.90;90.70;;;;;;1935071;72;21009;-79
2021/06/16 09:55:47;;;;;;;2.70;1.30;;;31.40;90.50;;;;;;1935225;74;21033;-78
2021/06/16 09:58:20;;;;;;;1.60;0.90;;;31.70;88.90;;;;;;1935370;74;21111;-79
2021/06/16 10:00:43;;;;;;;1.92;1.22;;;31.50;89.80;;;;;;1935273;73;21177;-78
2021/06/16 10:03:09;;;;;;;4.53;1.47;;;31.70;87.50;;;;;;1929288;72;21081;-80
2021/06/16 10:05:35;;;;;;;3.45;1.40;;;31.20;88.70;;;;;;1935054;74;21127;-80
2021/06/16 10:08:01;;;;;;;2.00;0.90;;;31.60;86.90;;;;;;1935147;74;21025;-80
2021/06/16 10:10:29;;;;;;;11.10;1.50;;;32.00;86.30;;;;;;1934421;72;21022;-80
2021/06/16 10:12:55;;;;;;;6.20;1.10;;;31.40;85.10;;;;;;1935146;72;21135;-79
2021/06/16 10:15:22;;;;;;;3.30;1.10;;;31.20;87.80;;;;;;1935001;74;21057;-80
2021/06/16 10:17:50;;;;;;;3.60;1.10;;;31.30;88.30;;;;;;1934973;73;21068;-79
2021/06/16 10:20:16;;;;;;;6.75;1.15;;;31.70;86.20;;;;;;1934613;72;21029;-78
2021/06/16 10:22:45;;;;;;;3.00;1.40;;;31.50;85.60;;;;;;1933864;72;21622;-78
2021/06/16 10:25:11;;;;;;;4.78;1.40;;;31.50;85.70;;;;;;1930812;72;21134;-78
2021/06/16 10:27:38;;;;;;;2.00;1.05;;;31.90;85.00;;;;;;1897960;74;21118;-78
2021/06/16 10:30:04;;;;;;;5.80;1.35;;;32.00;84.10;;;;;;1936987;73;21540;-79
2021/06/16 10:32:30;;;;;;;2.83;1.37;;;32.00;84.20;;;;;;1935018;72;21523;-80
2021/06/16 10:34:56;;;;;;;9.08;1.52;;;31.80;81.10;;;;;;1934140;74;21459;-80
2021/06/16 10:37:22;;;;;;;9.88;1.52;;;31.90;79.20;;;;;;1933708;74;21476;-79
2021/06/16 10:39:48;;;;;;;3.40;1.42;;;32.20;80.20;;;;;;1933575;74;21480;-79
2021/06/16 10:42:14;;;;;;;3.12;1.47;;;31.90;80.00;;;;;;1933500;74;21542;-80
2021/06/16 10:44:40;;;;;;;3.08;1.40;;;32.10;79.80;;;;;;1933456;74;21052;-79
2021/06/16 10:47:07;;;;;;;1.62;1.25;;;32.30;79.00;;;;;;1933454;74;21061;-80
2021/06/16 10:49:34;;;;;;;2.65;1.30;;;32.80;80.50;;;;;;1933439;72;21097;-80
2021/06/16 10:52:00;;;;;;;5.40;1.27;;;32.70;77.60;;;;;;1933292;74;21056;-80
2021/06/16 10:54:28;;;;;;;2.67;1.27;;;32.40;77.00;;;;;;1933543;72;21481;-80
2021/06/16 10:56:55;;;;;;;1.32;1.02;;;32.40;76.30;;;;;;1933456;74;21064;-80
2021/06/16 10:59:22;;;;;;;3.30;1.10;;;33.00;76.90;;;;;;1933653;74;21061;-80
2021/06/16 11:01:49;;;;;;;2.42;1.10;;;32.60;75.30;;;;;;1934053;74;21049;-82
2021/06/16 11:04:16;;;;;;;6.53;1.17;;;32.70;76.70;;;;;;1934010;74;21060;-79
2021/06/16 11:06:42;;;;;;;9.85;1.55;;;32.60;74.90;;;;;;1934871;72;21131;-81
2021/06/16 11:09:08;;;;;;;3.27;1.57;;;32.60;76.10;;;;;;1936280;74;21029;-79
2021/06/16 11:11:36;;;;;;;2.15;0.98;;;32.70;73.90;;;;;;1937297;72;21065;-79
2021/06/16 11:14:04;;;;;;;0.70;0.70;;;32.80;77.80;;;;;;1934573;74;21127;-79
2021/06/16 11:16:30;;;;;;;3.95;1.00;;;33.00;74.80;;;;;;1934389;73;21122;-79
2021/06/16 11:18:57;;;;;;;2.62;0.90;;;33.70;72.70;;;;;;1933795;74;21025;-79
2021/06/16 11:21:23;;;;;;;1.62;1.32;;;33.30;73.10;;;;;;1933844;72;21361;-80
2021/06/16 11:23:49;;;;;;;8.08;1.40;;;33.30;72.10;;;;;;1934687;72;21013;-82
2021/06/16 11:26:15;;;;;;;2.90;1.20;;;33.50;73.40;;;;;;1934633;72;21449;-80
2021/06/16 11:28:42;;;;;;;2.22;1.07;;;33.50;72.90;;;;;;1934284;74;20994;-80
2021/06/16 11:31:09;;;;;;;4.97;1.80;;;33.60;71.70;;;;;;1934580;74;21533;-78
2021/06/16 11:33:37;;;;;;;5.12;1.12;;;32.70;71.90;;;;;;1934133;74;21134;-79
2021/06/16 11:36:03;;;;;;;1.40;1.02;;;32.60;71.80;;;;;;1934016;74;21489;-78
2021/06/16 11:38:31;;;;;;;7.97;1.42;;;33.00;71.70;;;;;;1934257;74;21022;-79
2021/06/16 11:41:00;;;;;;;3.17;1.20;;;33.60;71.10;;;;;;1934281;74;21033;-80
2021/06/16 11:43:26;;;;;;;2.98;1.10;;;33.80;70.30;;;;;;1934133;72;21029;-80
2021/06/16 11:45:55;;;;;;;2.22;1.20;;;33.30;69.00;;;;;;1898516;74;21052;-80
2021/06/16 11:48:23;;;;;;;2.40;1.12;;;32.70;70.90;;;;;;1928856;73;21048;-80
2021/06/16 11:50:49;;;;;;;1.27;0.98;;;32.50;71.60;;;;;;1934477;72;21053;-79
2021/06/16 11:53:15;;;;;;;2.37;1.20;;;32.50;73.20;;;;;;1934078;74;21531;-80
2021/06/16 11:55:42;;;;;;;3.90;1.00;;;33.00;72.20;;;;;;1898478;74;21424;-80
2021/06/16 11:58:08;;;;;;;4.25;1.15;;;33.40;70.90;;;;;;1934130;74;21061;-78
2021/06/16 12:00:34;;;;;;;1.82;1.20;;;33.20;69.10;;;;;;1934673;74;21064;-80
2021/06/16 12:03:00;;;;;;;2.87;1.12;;;33.80;68.20;;;;;;1934121;74;21020;-81
2021/06/16 12:05:27;;;;;;;1.92;1.15;;;33.30;68.00;;;;;;1934082;74;21056;-80
2021/06/16 12:07:55;;;;;;;1.67;0.80;;;32.30;69.30;;;;;;1933919;74;21065;-81
2021/06/16 12:10:21;;;;;;;10.55;1.42;;;32.80;68.30;;;;;;1933611;72;21496;-80
2021/06/16 12:12:48;;;;;;;6.42;1.07;;;33.00;68.90;;;;;;1933572;72;21503;-80
2021/06/16 12:15:14;;;;;;;4.08;1.02;;;32.80;68.90;;;;;;1927753;72;21034;-79
2021/06/16 12:17:40;;;;;;;5.95;1.57;;;33.50;67.80;;;;;;1933727;74;21145;-80
2021/06/16 12:20:07;;;;;;;1.55;0.98;;;34.00;66.60;;;;;;1933637;74;21061;-80
2021/06/16 12:22:33;;;;;;;2.65;1.10;;;34.00;66.50;;;;;;1933779;74;21077;-80
2021/06/16 12:25:00;;;;;;;9.35;1.02;;;34.60;65.00;;;;;;1933982;74;21080;-80
2021/06/16 12:27:26;;;;;;;4.92;1.20;;;34.20;65.30;;;;;;1936674;73;21069;-82
2021/06/16 12:29:52;;;;;;;3.37;1.12;;;33.60;65.90;;;;;;1933552;74;21052;-81
2021/06/16 12:32:18;;;;;;;1.40;1.00;;;33.20;66.00;;;;;;1933664;72;21061;-80
2021/06/16 12:37:18;;;;;;;3.05;1.10;;;34.00;65.40;;;;;;1933532;74;21069;-80
2021/06/16 12:39:44;;;;;;;2.33;0.82;;;34.40;64.00;;;;;;1934053;74;21139;-80
2021/06/16 12:42:10;;;;;;;3.20;1.00;;;34.70;63.30;;;;;;1933715;73;21177;-81
2021/06/16 12:44:38;;;;;;;1.20;1.02;;;34.70;62.30;;;;;;1933658;74;21064;-80
2021/06/16 12:47:04;;;;;;;2.47;1.22;;;34.80;62.70;;;;;;1934015;74;21122;-80
2021/06/16 12:49:30;;;;;;;5.87;1.32;;;34.70;61.30;;;;;;1933648;74;21026;-79